createdAt,value
2018-03-30T00:00:09.081Z,99843.59
2018-03-30T00:02:36.675Z,99844.45
2018-03-30T00:05:04.337Z,99840.78
2018-03-30T00:07:31.931Z,99849.71
2018-03-30T00:09:59.534Z,99862.38
2018-03-30T00:12:27.171Z,99860.22
2018-03-30T00:14:54.758Z,99859.34
2018-03-30T00:17:22.340Z,99858.07
2018-03-30T00:19:49.995Z,99858.88
2018-03-30T00:22:17.654Z,99853.39
2018-03-30T00:24:45.299Z,99855.25
2018-03-30T00:27:12.897Z,99863.06
2018-03-30T00:29:40.490Z,99861.78
2018-03-30T00:32:08.080Z,99871.28
2018-03-30T00:34:35.666Z,99876.95
2018-03-30T00:37:03.295Z,99871.83
2018-03-30T00:39:30.883Z,99877.73
2018-03-30T00:41:58.468Z,99881.13
2018-03-30T00:44:26.060Z,99874.61
2018-03-30T00:46:53.731Z,99877.36
2018-03-30T00:49:21.330Z,99867.69
2018-03-30T00:51:48.931Z,99872.22
2018-03-30T00:54:16.552Z,99873.95
2018-03-30T00:56:44.135Z,99875.62
2018-03-30T00:59:11.728Z,99882.64
2018-03-30T01:01:39.408Z,99880.50
2018-03-30T01:04:07.024Z,99882.66
2018-03-30T01:06:34.739Z,99888.42
2018-03-30T01:09:02.327Z,99882.31
2018-03-30T01:11:29.915Z,99886.24
2018-03-30T01:13:57.514Z,99892.34
2018-03-30T01:16:25.097Z,99885.34
2018-03-30T01:18:52.698Z,99892.68
2018-03-30T01:21:20.296Z,99887.21
2018-03-30T01:23:47.914Z,99893.30
2018-03-30T01:26:15.591Z,99889.30
2018-03-30T01:28:43.232Z,99902.96
2018-03-30T01:31:10.899Z,99896.58
2018-03-30T01:33:38.479Z,99897.91
2018-03-30T01:36:06.111Z,99901.36
2018-03-30T01:38:33.696Z,99904.42
2018-03-30T01:41:01.301Z,99903.72
2018-03-30T01:43:28.939Z,99906.38
2018-03-30T01:45:56.551Z,99909.55
2018-03-30T01:48:24.126Z,99911.22
2018-03-30T01:50:51.720Z,99909.33
2018-03-30T01:53:19.352Z,99905.93
2018-03-30T01:55:47.028Z,99903.77
2018-03-30T01:58:14.668Z,99908.34
2018-03-30T02:00:42.267Z,99902.98
2018-03-30T02:03:09.854Z,99896.87
2018-03-30T02:05:37.490Z,99897.81
2018-03-30T02:08:05.114Z,99914.86
2018-03-30T02:10:32.714Z,99916.52
2018-03-30T02:13:00.306Z,99920.97
2018-03-30T02:15:27.934Z,99929.20
2018-03-30T02:17:55.520Z,99920.53
2018-03-30T02:20:23.106Z,99919.33
2018-03-30T02:22:50.726Z,99917.64
2018-03-30T02:25:18.344Z,99920.23
2018-03-30T02:27:45.954Z,99921.11
2018-03-30T02:30:13.585Z,99919.73
2018-03-30T02:32:41.233Z,99925.91
2018-03-30T02:35:08.857Z,99931.23
2018-03-30T02:37:36.459Z,99933.81
2018-03-30T02:40:04.096Z,99941.20
2018-03-30T02:42:31.726Z,99943.77
2018-03-30T02:44:59.330Z,99945.96
2018-03-30T02:47:26.923Z,99945.94
2018-03-30T02:49:54.555Z,99946.84
2018-03-30T02:52:22.192Z,99953.89
2018-03-30T02:54:49.832Z,99957.79
2018-03-30T02:57:17.464Z,99949.95
2018-03-30T02:59:45.099Z,99955.53
2018-03-30T03:02:12.713Z,99951.61
2018-03-30T03:04:40.303Z,99962.50
2018-03-30T03:07:07.886Z,99955.59
2018-03-30T03:09:35.511Z,99956.92
2018-03-30T03:12:03.131Z,99964.77
2018-03-30T03:14:30.731Z,99967.83
2018-03-30T03:16:58.331Z,99973.50
2018-03-30T03:19:25.923Z,99965.65
2018-03-30T03:21:53.510Z,99966.08
2018-03-30T03:24:21.115Z,99974.34
2018-03-30T03:26:48.725Z,99974.33
2018-03-30T03:29:16.319Z,99981.30
2018-03-30T03:31:44.006Z,99980.45
2018-03-30T03:34:11.607Z,99987.39
2018-03-30T03:36:39.201Z,99985.22
2018-03-30T03:39:06.787Z,99989.58
2018-03-30T03:41:34.380Z,99990.86
2018-03-30T03:44:02.054Z,99999.99
2018-03-30T03:46:29.699Z,100008.28
2018-03-30T03:48:57.323Z,100003.07
2018-03-30T03:51:24.962Z,100000.45
2018-03-30T03:53:52.548Z,100003.92
2018-03-30T03:56:20.135Z,100009.57
2018-03-30T03:58:47.726Z,100003.50
2018-03-30T04:01:15.360Z,100007.84
2018-03-30T04:03:42.963Z,100013.50
2018-03-30T04:06:10.552Z,100010.88
2018-03-30T04:08:38.175Z,100019.14
2018-03-30T04:11:05.803Z,100020.04
2018-03-30T04:13:33.395Z,100018.73
2018-03-30T04:16:01.079Z,100024.80
2018-03-30T04:18:28.666Z,100010.43
2018-03-30T04:20:56.263Z,100023.03
2018-03-30T04:23:23.858Z,100029.55
2018-03-30T04:25:51.547Z,100034.34
2018-03-30T04:28:19.166Z,100026.94
2018-03-30T04:30:46.754Z,100030.86
2018-03-30T04:33:14.465Z,100029.98
2018-03-30T04:35:42.065Z,100033.03
2018-03-30T04:38:09.666Z,100033.04
2018-03-30T04:40:37.302Z,100035.65
2018-03-30T04:43:04.921Z,100038.30
2018-03-30T04:45:32.602Z,100033.50
2018-03-30T04:48:00.187Z,100027.85
2018-03-30T04:50:27.800Z,100036.11
2018-03-30T04:52:55.402Z,100035.25
2018-03-30T04:55:23.023Z,100043.09
2018-03-30T04:57:50.624Z,100042.22
2018-03-30T05:00:18.222Z,100047.42
2018-03-30T05:02:45.850Z,100051.77
2018-03-30T05:05:13.436Z,100053.53
2018-03-30T05:07:41.067Z,100051.77
2018-03-30T05:10:08.675Z,100047.00
2018-03-30T05:12:36.303Z,100052.25
2018-03-30T05:15:04.075Z,100047.40
2018-03-30T05:17:31.679Z,100052.66
2018-03-30T05:19:59.372Z,100052.65
2018-03-30T05:22:27.003Z,100052.64
2018-03-30T05:24:54.622Z,100057.98
2018-03-30T05:27:22.253Z,100052.56
2018-03-30T05:29:49.870Z,100053.02
2018-03-30T05:32:17.499Z,100058.53
2018-03-30T05:34:45.262Z,100066.21
2018-03-30T05:37:12.988Z,100071.66
2018-03-30T05:39:40.709Z,100060.51
2018-03-30T05:42:08.339Z,100058.63
2018-03-30T05:44:35.969Z,100058.62
2018-03-30T05:47:03.585Z,100062.22
2018-03-30T05:49:31.186Z,100060.30
2018-03-30T05:51:58.831Z,100058.98
2018-03-30T05:54:26.469Z,100058.30
2018-03-30T05:56:54.063Z,100048.29
2018-03-30T05:59:21.695Z,100054.31
2018-03-30T06:01:49.287Z,100057.22
2018-03-30T06:04:16.918Z,100057.59
2018-03-30T06:06:44.679Z,100060.59
2018-03-30T06:09:12.374Z,100064.25
2018-03-30T06:11:40.000Z,100060.38
2018-03-30T06:14:07.640Z,100061.18
2018-03-30T06:16:35.230Z,100058.86
2018-03-30T06:19:02.846Z,100060.84
2018-03-30T06:21:30.546Z,100060.49
2018-03-30T06:23:58.188Z,100053.96
2018-03-30T06:26:25.796Z,100067.78
2018-03-30T06:28:53.403Z,100065.13
2018-03-30T06:31:21.048Z,100068.95
2018-03-30T06:33:48.642Z,100062.09
2018-03-30T06:36:16.238Z,100065.75
2018-03-30T06:38:43.855Z,100067.59
2018-03-30T06:41:12.039Z,100074.66
2018-03-30T06:43:39.640Z,100080.31
2018-03-30T06:46:07.240Z,100082.30
2018-03-30T06:48:34.853Z,100080.59
2018-03-30T06:51:02.468Z,100076.52
2018-03-30T06:53:30.122Z,100079.64
2018-03-30T06:55:57.722Z,100087.10
2018-03-30T06:58:25.335Z,100084.66
2018-03-30T07:00:52.970Z,100086.26
2018-03-30T07:03:20.603Z,100074.84
2018-03-30T07:05:48.198Z,100070.11
2018-03-30T07:08:15.812Z,100073.94
2018-03-30T07:10:43.458Z,100073.68
2018-03-30T07:13:11.128Z,100074.92
2018-03-30T07:15:38.767Z,100076.97
2018-03-30T07:18:06.377Z,100079.86
2018-03-30T07:20:33.992Z,100078.11
2018-03-30T07:23:01.627Z,100085.23
2018-03-30T07:25:29.283Z,100080.48
2018-03-30T07:27:56.890Z,100085.20
2018-03-30T07:30:24.484Z,100086.02
2018-03-30T07:32:52.199Z,100078.81
2018-03-30T07:35:19.821Z,100088.31
2018-03-30T07:37:47.415Z,100078.94
2018-03-30T07:40:15.022Z,100078.17
2018-03-30T07:42:42.655Z,100080.95
2018-03-30T07:45:10.257Z,100084.66
2018-03-30T07:47:37.941Z,100084.28
2018-03-30T07:50:05.567Z,100077.52
2018-03-30T07:52:33.196Z,100080.85
2018-03-30T07:55:00.791Z,100080.94
2018-03-30T07:57:28.396Z,100081.50
2018-03-30T07:59:56.031Z,100076.60
2018-03-30T08:02:23.619Z,100076.48
2018-03-30T08:04:51.223Z,100076.54
2018-03-30T08:07:18.859Z,100078.80
2018-03-30T08:09:46.502Z,100070.77
2018-03-30T08:12:14.216Z,100074.47
2018-03-30T08:14:41.839Z,100075.52
2018-03-30T08:17:09.437Z,100074.37
2018-03-30T08:19:37.040Z,100071.24
2018-03-30T08:22:04.734Z,100074.73
2018-03-30T08:24:32.339Z,100076.22
2018-03-30T08:26:59.931Z,100077.31
2018-03-30T08:29:27.563Z,100068.80
2018-03-30T08:31:55.158Z,100056.39
2018-03-30T08:34:22.772Z,100052.53
2018-03-30T08:36:50.382Z,100056.02
2018-03-30T08:39:17.971Z,100058.66
2018-03-30T08:41:45.583Z,100063.56
2018-03-30T08:44:13.179Z,100065.65
2018-03-30T08:46:40.852Z,100057.02
2018-03-30T08:49:08.452Z,100056.34
2018-03-30T08:51:36.067Z,100056.67
2018-03-30T08:54:03.671Z,100055.45
2018-03-30T08:56:31.330Z,100049.31
2018-03-30T08:58:58.930Z,100053.36
2018-03-30T09:01:26.548Z,100043.69
2018-03-30T09:03:54.171Z,100044.28
2018-03-30T09:06:21.775Z,100035.09
2018-03-30T09:08:49.419Z,100033.37
2018-03-30T09:11:17.009Z,100022.84
2018-03-30T09:13:44.623Z,100024.09
2018-03-30T09:16:12.223Z,100012.46
2018-03-30T09:18:39.828Z,100011.70
2018-03-30T09:21:07.436Z,100016.80
2018-03-30T09:23:35.031Z,100013.70
2018-03-30T09:26:02.738Z,100009.37
2018-03-30T09:28:30.435Z,100010.22
2018-03-30T09:30:58.055Z,100004.02
2018-03-30T09:33:28.328Z,99995.84
2018-03-30T09:35:55.924Z,100004.13
2018-03-30T09:38:23.529Z,99998.56
2018-03-30T09:40:51.139Z,100000.07
2018-03-30T09:43:18.776Z,99987.81
2018-03-30T09:45:46.375Z,99983.59
2018-03-30T09:48:13.964Z,99976.21
2018-03-30T09:50:41.570Z,99978.84
2018-03-30T09:53:09.170Z,99970.08
2018-03-30T09:55:36.852Z,99969.23
2018-03-30T09:58:04.456Z,99970.23
2018-03-30T10:00:32.047Z,99963.23
2018-03-30T10:03:04.569Z,99960.16
2018-03-30T10:05:32.177Z,99967.53
2018-03-30T10:07:59.775Z,99953.94
2018-03-30T10:10:27.402Z,99943.47
2018-03-30T10:12:55.011Z,99942.46
2018-03-30T10:15:22.610Z,99950.25
2018-03-30T10:17:50.240Z,99943.94
2018-03-30T10:20:17.850Z,99939.02
2018-03-30T10:22:45.451Z,99931.95
2018-03-30T10:25:13.097Z,99935.27
2018-03-30T10:27:40.745Z,99927.08
2018-03-30T10:30:08.339Z,99928.67
2018-03-30T10:32:35.947Z,99922.45
2018-03-30T10:35:03.536Z,99929.94
2018-03-30T10:37:31.135Z,99919.62
2018-03-30T10:39:58.758Z,99924.70
2018-03-30T10:42:26.355Z,99918.34
2018-03-30T10:44:54.018Z,99908.87
2018-03-30T10:47:21.671Z,99910.28
2018-03-30T10:49:49.259Z,99908.27
2018-03-30T10:52:16.898Z,99900.49
2018-03-30T10:54:44.540Z,99901.62
2018-03-30T10:57:12.142Z,99902.53
2018-03-30T10:59:39.752Z,99902.47
2018-03-30T11:02:07.350Z,99902.83
2018-03-30T11:04:34.973Z,99893.29
2018-03-30T11:07:02.604Z,99883.23
2018-03-30T11:09:30.195Z,99876.58
2018-03-30T11:11:57.838Z,99876.70
2018-03-30T11:14:25.543Z,99885.31
2018-03-30T11:16:53.143Z,99881.59
2018-03-30T11:19:20.779Z,99888.61
2018-03-30T11:21:48.370Z,99882.98
2018-03-30T11:24:15.967Z,99886.14
2018-03-30T11:26:43.583Z,99882.89
2018-03-30T11:29:11.213Z,99876.39
2018-03-30T11:31:38.828Z,99869.94
2018-03-30T11:34:06.411Z,99862.67
2018-03-30T11:36:34.083Z,99858.72
2018-03-30T11:39:01.674Z,99859.06
2018-03-30T11:41:29.306Z,99848.44
2018-03-30T11:43:57.038Z,99857.96
2018-03-30T11:46:24.728Z,99851.55
2018-03-30T11:48:52.332Z,99858.11
2018-03-30T11:51:19.927Z,99846.30
2018-03-30T11:53:47.555Z,99844.16
2018-03-30T11:56:15.171Z,99843.23
2018-03-30T11:58:43.667Z,99830.48
2018-03-30T12:03:38.199Z,99820.56
2018-03-30T12:06:05.790Z,99818.84
2018-03-30T12:08:33.392Z,99809.49
2018-03-30T12:11:00.991Z,99804.58
2018-03-30T12:13:28.580Z,99813.09
2018-03-30T12:15:56.182Z,99808.60
2018-03-30T12:18:23.796Z,99804.68
2018-03-30T12:20:51.391Z,99809.41
2018-03-30T12:23:19.026Z,99803.47
2018-03-30T12:25:46.687Z,99794.89
2018-03-30T12:28:14.275Z,99797.66
2018-03-30T12:30:41.889Z,99794.62
2018-03-30T12:33:09.516Z,99793.82
2018-03-30T12:35:37.170Z,99791.89
2018-03-30T12:38:04.794Z,99789.95
2018-03-30T12:40:32.415Z,99777.55
2018-03-30T12:43:00.004Z,99778.52
2018-03-30T12:45:27.598Z,99771.88
2018-03-30T12:47:55.283Z,99761.58
2018-03-30T12:50:22.896Z,99763.48
2018-03-30T12:52:50.489Z,99762.66
2018-03-30T12:55:18.987Z,99768.02
2018-03-30T12:57:46.587Z,99755.67
2018-03-30T13:00:14.179Z,99755.99
2018-03-30T13:02:41.831Z,99750.46
2018-03-30T13:05:09.470Z,99753.63
2018-03-30T13:07:37.064Z,99754.44
2018-03-30T13:10:04.690Z,99742.23
2018-03-30T13:12:32.278Z,99748.43
2018-03-30T13:14:59.863Z,99746.41
2018-03-30T13:17:27.478Z,99741.92
2018-03-30T13:19:55.062Z,99741.25
2018-03-30T13:22:22.654Z,99735.87
2018-03-30T13:24:50.267Z,99730.81
2018-03-30T13:27:17.894Z,99731.19
2018-03-30T13:29:45.499Z,99725.39
2018-03-30T13:32:13.111Z,99734.55
2018-03-30T13:34:40.807Z,99725.41
2018-03-30T13:37:08.434Z,99731.20
2018-03-30T13:39:36.027Z,99717.78
2018-03-30T13:42:03.639Z,99706.91
2018-03-30T13:44:31.232Z,99714.34
2018-03-30T13:46:58.859Z,99711.56
2018-03-30T13:49:26.476Z,99704.92
2018-03-30T13:51:57.956Z,99708.30
2018-03-30T13:54:27.246Z,99703.53
2018-03-30T13:57:00.436Z,99703.92
2018-03-30T13:59:28.875Z,99700.78
2018-03-30T14:02:01.109Z,99701.12
2018-03-30T14:04:44.502Z,99701.27
2018-03-30T14:07:13.872Z,99702.00
2018-03-30T14:09:42.223Z,99697.23
2018-03-30T14:12:12.471Z,99694.66
2018-03-30T14:14:40.070Z,99692.33
2018-03-30T14:17:21.323Z,99688.58
2018-03-30T14:19:50.461Z,99696.37
2018-03-30T14:25:20.423Z,99695.57
2018-03-30T14:27:59.585Z,99693.31
2018-03-30T14:30:27.174Z,99689.49
2018-03-30T14:33:07.403Z,99686.03
2018-03-30T14:38:34.726Z,99702.25
2018-03-30T14:41:02.347Z,99685.00
2018-03-30T14:43:33.582Z,99686.38
2018-03-30T14:48:59.375Z,99694.03
2018-03-30T14:51:33.750Z,99691.95
2018-03-30T14:54:07.026Z,99685.12
2018-03-30T14:56:38.483Z,99687.07
2018-03-30T14:59:09.885Z,99686.61
2018-03-30T15:01:43.357Z,99691.30
2018-03-30T15:04:22.774Z,99686.59
2018-03-30T15:06:56.247Z,99687.35
2018-03-30T15:09:26.374Z,99691.77
2018-03-30T15:12:01.649Z,99690.41
2018-03-30T15:14:29.960Z,99683.25
2018-03-30T15:17:01.343Z,99685.62
2018-03-30T15:19:49.615Z,99684.52
2018-03-30T15:22:20.953Z,99684.56
2018-03-30T15:24:57.071Z,99687.11
2018-03-30T15:27:27.342Z,99698.02
2018-03-30T15:29:57.816Z,99693.99
2018-03-30T15:32:51.762Z,99700.10
2018-03-30T15:35:19.479Z,99702.02
2018-03-30T15:37:47.104Z,99707.98
2018-03-30T15:40:17.411Z,99697.56
2018-03-30T15:42:50.753Z,99703.19
2018-03-30T15:45:21.886Z,99706.69
2018-03-30T15:47:49.556Z,99710.03
2018-03-30T15:50:17.228Z,99712.88
2018-03-30T15:52:44.927Z,99719.27
2018-03-30T15:55:12.550Z,99712.63
2018-03-30T15:57:40.227Z,99721.45
2018-03-30T16:00:07.864Z,99717.31
2018-03-30T16:02:35.492Z,99713.06
2018-03-30T16:05:03.243Z,99717.59
2018-03-30T16:07:30.878Z,99714.66
2018-03-30T16:10:13.105Z,99710.48
2018-03-30T16:12:40.767Z,99709.70
2018-03-30T16:15:08.404Z,99707.80
2018-03-30T16:17:36.221Z,99712.43
2018-03-30T16:20:03.304Z,99714.76
2018-03-30T16:22:30.429Z,99719.39
2018-03-30T16:24:57.523Z,99728.08
2018-03-30T16:27:24.578Z,99724.78
2018-03-30T16:29:51.631Z,99725.08
2018-03-30T16:32:18.754Z,99721.84
2018-03-30T16:34:45.813Z,99728.22
2018-03-30T16:37:12.915Z,99733.69
2018-03-30T16:39:40.249Z,99736.84
2018-03-30T16:42:07.311Z,99746.55
2018-03-30T16:44:34.382Z,99745.45
2018-03-30T16:47:01.476Z,99746.91
2018-03-30T16:49:28.526Z,99746.39
2018-03-30T16:51:55.635Z,99738.47
2018-03-30T16:54:22.679Z,99730.34
2018-03-30T16:56:49.739Z,99735.05
2018-03-30T16:59:16.815Z,99740.01
2018-03-30T17:01:43.885Z,99739.23
2018-03-30T17:04:11.026Z,99748.73
2018-03-30T17:06:38.080Z,99750.59
2018-03-30T17:09:05.190Z,99746.48
2018-03-30T17:11:32.246Z,99749.92
2018-03-30T17:13:59.298Z,99754.77
2018-03-30T17:16:26.383Z,99765.98
2018-03-30T17:18:53.442Z,99761.12
2018-03-30T17:21:20.504Z,99758.98
2018-03-30T17:23:47.564Z,99758.16
2018-03-30T17:26:15.542Z,99762.84
2018-03-30T17:28:42.627Z,99759.67
2018-03-30T17:31:09.674Z,99763.66
2018-03-30T17:33:36.799Z,99774.64
2018-03-30T17:36:03.943Z,99775.66
2018-03-30T17:38:30.991Z,99778.70
2018-03-30T17:40:58.048Z,99780.61
2018-03-30T17:43:25.151Z,99785.26
2018-03-30T17:45:52.224Z,99791.27
2018-03-30T17:48:19.283Z,99795.14
2018-03-30T17:50:46.412Z,99799.14
2018-03-30T17:53:13.491Z,99802.23
2018-03-30T17:55:40.547Z,99807.77
2018-03-30T17:58:07.643Z,99819.38
2018-03-30T18:00:34.734Z,99817.74
2018-03-30T18:03:01.790Z,99813.52
2018-03-30T18:05:28.842Z,99815.00
2018-03-30T18:07:55.894Z,99825.93
2018-03-30T18:10:23.008Z,99822.89
2018-03-30T18:12:50.186Z,99824.88
2018-03-30T18:15:17.290Z,99817.53
2018-03-30T18:17:44.496Z,99822.81
2018-03-30T18:20:11.627Z,99831.59
2018-03-30T18:22:39.703Z,99834.72
2018-03-30T18:25:06.802Z,99837.66
2018-03-30T18:27:33.892Z,99841.25
2018-03-30T18:30:00.986Z,99847.49
2018-03-30T18:32:28.039Z,99846.70
2018-03-30T18:34:55.103Z,99842.44
2018-03-30T18:37:22.276Z,99836.02
2018-03-30T18:39:49.359Z,99842.06
2018-03-30T18:42:16.435Z,99852.06
2018-03-30T18:44:43.552Z,99847.66
2018-03-30T18:47:10.707Z,99856.31
2018-03-30T18:49:37.819Z,99851.14
2018-03-30T18:52:04.925Z,99859.86
2018-03-30T18:54:32.046Z,99867.41
2018-03-30T18:56:59.191Z,99867.16
2018-03-30T18:59:26.243Z,99867.09
2018-03-30T19:01:53.299Z,99869.10
2018-03-30T19:04:20.399Z,99878.28
2018-03-30T19:06:47.528Z,99882.75
2018-03-30T19:09:14.662Z,99884.88
2018-03-30T19:11:41.753Z,99882.28
2018-03-30T19:14:08.822Z,99889.55
2018-03-30T19:16:35.939Z,99890.33
2018-03-30T19:19:03.018Z,99894.23
2018-03-30T19:21:30.074Z,99899.50
2018-03-30T19:23:57.168Z,99902.99
2018-03-30T19:26:24.294Z,99903.42
2018-03-30T19:28:51.346Z,99899.20
2018-03-30T19:31:18.443Z,99901.14
2018-03-30T19:33:45.491Z,99897.94
2018-03-30T19:36:12.547Z,99892.64
2018-03-30T19:38:39.661Z,99893.16
2018-03-30T19:41:06.798Z,99887.23
2018-03-30T19:43:33.838Z,99893.78
2018-03-30T19:46:00.959Z,99897.70
2018-03-30T19:48:28.015Z,99909.77
2018-03-30T19:50:55.061Z,99903.67
2018-03-30T19:53:22.146Z,99908.69
2018-03-30T19:55:49.203Z,99909.23
2018-03-30T19:58:16.363Z,99901.61
2018-03-30T20:00:43.452Z,99900.84
2018-03-30T20:03:10.500Z,99897.01
2018-03-30T20:05:37.584Z,99897.90
2018-03-30T20:08:04.672Z,99902.16
2018-03-30T20:10:31.726Z,99900.69
2018-03-30T20:12:58.783Z,99910.08
2018-03-30T20:15:25.946Z,99901.95
2018-03-30T20:17:53.022Z,99902.20
2018-03-30T20:20:20.109Z,99903.87
2018-03-30T20:22:47.167Z,99908.47
2018-03-30T20:25:14.238Z,99908.02
2018-03-30T20:27:41.323Z,99917.83
2018-03-30T20:30:08.418Z,99915.97
2018-03-30T20:32:35.469Z,99916.59
2018-03-30T20:35:02.532Z,99916.48
2018-03-30T20:37:29.619Z,99916.54
2018-03-30T20:39:56.674Z,99920.20
2018-03-30T20:42:23.731Z,99923.36
2018-03-30T20:44:50.850Z,99924.98
2018-03-30T20:47:17.960Z,99927.25
2018-03-30T20:49:45.027Z,99927.52
2018-03-30T20:52:12.074Z,99927.35
2018-03-30T20:54:39.133Z,99924.41
2018-03-30T20:57:06.186Z,99930.03
2018-03-30T20:59:33.276Z,99928.22
2018-03-30T21:02:00.324Z,99926.05
2018-03-30T21:04:27.386Z,99930.50
2018-03-30T21:06:54.471Z,99923.41
2018-03-30T21:09:21.542Z,99913.72
2018-03-30T21:11:48.630Z,99914.70
2018-03-30T21:14:15.680Z,99921.34
2018-03-30T21:16:42.754Z,99924.47
2018-03-30T21:19:09.843Z,99923.80
2018-03-30T21:21:36.898Z,99925.05
2018-03-30T21:24:03.946Z,99930.08
2018-03-30T21:26:31.009Z,99937.22
2018-03-30T21:28:58.101Z,99936.28
2018-03-30T21:31:25.227Z,99933.22
2018-03-30T21:33:52.300Z,99933.86
2018-03-30T21:36:19.350Z,99931.66
2018-03-30T21:38:46.411Z,99933.86
2018-03-30T21:41:13.479Z,99925.78
2018-03-30T21:43:40.571Z,99929.69
2018-03-30T21:46:07.646Z,99936.55
2018-03-30T21:48:34.714Z,99935.41
2018-03-30T21:51:01.887Z,99932.47
2018-03-30T21:53:28.944Z,99932.55
2018-03-30T21:55:56.060Z,99927.91
2018-03-30T21:58:23.142Z,99935.82
2018-03-30T22:00:50.222Z,99940.22
2018-03-30T22:03:17.268Z,99936.84
2018-03-30T22:05:44.402Z,99941.86
2018-03-30T22:08:11.442Z,99943.97
2018-03-30T22:10:38.495Z,99934.18
2018-03-30T22:13:05.607Z,99933.73
2018-03-30T22:15:32.655Z,99934.35
2018-03-30T22:17:59.701Z,99939.77
2018-03-30T22:20:26.785Z,99931.30
2018-03-30T22:22:53.831Z,99923.64
2018-03-30T22:25:20.893Z,99928.56
2018-03-30T22:27:47.959Z,99933.17
2018-03-30T22:30:15.015Z,99935.59
2018-03-30T22:32:42.106Z,99927.66
2018-03-30T22:35:09.198Z,99928.33
2018-03-30T22:37:36.242Z,99929.03
2018-03-30T22:40:03.378Z,99938.73
2018-03-30T22:42:30.438Z,99935.67
2018-03-30T22:44:57.523Z,99926.84
2018-03-30T22:47:24.622Z,99923.93
2018-03-30T22:49:51.670Z,99921.64
2018-03-30T22:52:18.722Z,99921.00
2018-03-30T22:54:45.770Z,99923.25
2018-03-30T22:57:12.830Z,99916.95
2018-03-30T22:59:39.919Z,99921.95
2018-03-30T23:02:06.970Z,99922.82
2018-03-30T23:04:34.022Z,99925.22
2018-03-30T23:07:01.107Z,99933.23
2018-03-30T23:09:28.177Z,99931.83
2018-03-30T23:11:55.234Z,99932.27
2018-03-30T23:14:22.314Z,99933.83
2018-03-30T23:16:49.358Z,99926.64
2018-03-30T23:19:16.420Z,99923.58
2018-03-30T23:21:43.474Z,99925.03
2018-03-30T23:24:10.554Z,99921.52
2018-03-30T23:26:37.602Z,99929.12
2018-03-30T23:29:04.659Z,99926.09
2018-03-30T23:31:31.818Z,99933.80
2018-03-30T23:33:58.958Z,99940.87
2018-03-30T23:36:26.039Z,99936.30
2018-03-30T23:38:53.128Z,99938.42
2018-03-30T23:41:20.182Z,99942.00
2018-03-30T23:43:47.283Z,99943.67
2018-03-30T23:46:14.346Z,99939.58
2018-03-30T23:48:41.394Z,99924.23
2018-03-30T23:51:08.526Z,99926.41
2018-03-30T23:53:35.584Z,99920.02
2018-03-30T23:56:02.662Z,99915.55
2018-03-30T23:58:29.722Z,99911.42
